Time;durP1;ratioP1;P1;durP2;ratioP2;P2;SDS_P1;SDS_P2;PMS_P1;PMS_P2;Temp;Humidity;BMP_temperature;BMP_pressure;BME280_temperature;BME280_humidity;BME280_pressure;Samples;Min_cycle;Max_cycle;Signal;HPM_P1;HPM_P2
2021/12/28 00:00:23;;;;;;;13.63;12.73;;;6.70;99.90;;;;;;5027530;28;20202;-77
2021/12/28 00:02:50;;;;;;;12.60;11.90;;;6.60;99.90;;;;;;5032823;28;20198;-77
2021/12/28 00:05:18;;;;;;;14.10;13.00;;;6.60;99.90;;;;;;5029147;28;20208;-78
2021/12/28 00:07:44;;;;;;;13.60;12.60;;;6.50;99.90;;;;;;5028422;28;20205;-77
2021/12/28 00:10:14;;;;;;;13.60;12.70;;;6.50;99.90;;;;;;5028530;28;20193;-77
2021/12/28 00:12:40;;;;;;;13.50;12.70;;;6.50;99.90;;;;;;5034168;28;20208;-78
2021/12/28 00:15:30;;;;;;;13.23;12.40;;;6.40;99.90;;;;;;5033503;28;20204;-78
2021/12/28 00:18:00;;;;;;;13.63;12.80;;;6.40;99.90;;;;;;5038400;28;20293;-77
2021/12/28 00:20:27;;;;;;;13.70;12.80;;;6.30;99.90;;;;;;5038678;28;20197;-77
2021/12/28 00:22:54;;;;;;;14.30;13.30;;;6.30;99.90;;;;;;5037324;28;20200;-77
2021/12/28 00:25:21;;;;;;;14.40;13.07;;;6.40;99.90;;;;;;5031524;28;20250;-77
2021/12/28 00:27:48;;;;;;;13.73;12.83;;;6.40;99.90;;;;;;5037587;28;20467;-78
2021/12/28 00:30:15;;;;;;;14.27;13.27;;;6.40;99.90;;;;;;5037650;28;20588;-77
2021/12/28 00:32:42;;;;;;;14.03;13.13;;;6.40;99.90;;;;;;5038697;28;20200;-77
2021/12/28 00:35:11;;;;;;;13.77;12.87;;;6.50;99.90;;;;;;5030884;28;20196;-77
2021/12/28 00:37:38;;;;;;;14.00;13.10;;;6.60;99.90;;;;;;5034790;28;20217;-77
2021/12/28 00:40:06;;;;;;;13.37;12.40;;;6.60;99.90;;;;;;5034403;28;20296;-78
2021/12/28 00:42:33;;;;;;;14.30;13.30;;;6.70;99.90;;;;;;5032059;28;20238;-77
2021/12/28 00:45:00;;;;;;;13.27;12.13;;;6.80;99.90;;;;;;5035412;28;20197;-78
2021/12/28 00:47:27;;;;;;;13.40;12.50;;;6.80;99.90;;;;;;5038026;28;20600;-77
2021/12/28 00:49:54;;;;;;;13.60;12.70;;;7.00;99.90;;;;;;5029694;28;20589;-77
2021/12/28 00:52:22;;;;;;;13.07;12.17;;;7.00;99.90;;;;;;5031695;28;20194;-77
2021/12/28 00:54:49;;;;;;;13.93;12.77;;;7.10;99.90;;;;;;5035852;28;20660;-77
2021/12/28 00:57:15;;;;;;;13.60;12.60;;;7.20;99.90;;;;;;5031497;28;20222;-77
2021/12/28 00:59:42;;;;;;;14.77;12.80;;;7.30;99.90;;;;;;5035040;28;20659;-77
2021/12/28 01:02:09;;;;;;;13.57;12.40;;;7.30;99.90;;;;;;5037359;28;20201;-78
2021/12/28 01:04:36;;;;;;;13.50;12.60;;;7.30;99.90;;;;;;5029661;28;20197;-77
2021/12/28 01:07:04;;;;;;;13.73;12.53;;;7.40;99.90;;;;;;5029309;28;20230;-77
2021/12/28 01:09:33;;;;;;;13.97;12.73;;;7.40;99.90;;;;;;5026718;28;20200;-77
2021/12/28 01:12:02;;;;;;;13.77;12.57;;;7.40;99.90;;;;;;5026220;28;20562;-77
2021/12/28 01:14:29;;;;;;;13.53;12.33;;;7.40;99.90;;;;;;5033368;28;20205;-77
2021/12/28 01:16:56;;;;;;;14.33;12.93;;;7.40;99.90;;;;;;5032667;28;20220;-77
2021/12/28 01:19:23;;;;;;;16.30;12.77;;;7.40;99.90;;;;;;5026139;28;20208;-77
2021/12/28 01:21:50;;;;;;;13.43;12.13;;;7.40;99.90;;;;;;5033163;28;20198;-77
2021/12/28 01:24:18;;;;;;;13.80;12.47;;;7.40;99.90;;;;;;5031947;28;20204;-76
2021/12/28 01:26:46;;;;;;;14.17;12.67;;;7.40;99.90;;;;;;5033354;28;20221;-77
2021/12/28 01:29:13;;;;;;;14.03;12.67;;;7.40;99.90;;;;;;5026980;28;20208;-77
2021/12/28 01:31:41;;;;;;;14.37;12.90;;;7.40;99.90;;;;;;5026509;28;20202;-76
2021/12/28 01:34:09;;;;;;;14.43;13.07;;;7.40;99.90;;;;;;5033112;28;20251;-76
2021/12/28 01:36:38;;;;;;;13.53;12.37;;;7.40;99.90;;;;;;5025594;28;20254;-77
2021/12/28 01:39:06;;;;;;;14.17;12.80;;;7.30;99.90;;;;;;5032571;28;20204;-78
2021/12/28 01:41:34;;;;;;;13.73;12.37;;;7.30;99.90;;;;;;5032814;28;20192;-77
2021/12/28 01:44:05;;;;;;;17.17;12.57;;;7.30;99.90;;;;;;5032179;28;20255;-77
2021/12/28 01:46:33;;;;;;;13.47;12.03;;;7.30;99.90;;;;;;5031053;28;20224;-77
2021/12/28 01:49:00;;;;;;;13.47;12.37;;;7.30;99.90;;;;;;5031047;28;20229;-76
2021/12/28 01:51:27;;;;;;;13.93;12.73;;;7.30;99.90;;;;;;5025562;28;20189;-77
2021/12/28 01:53:57;;;;;;;13.57;12.27;;;7.40;99.90;;;;;;5029701;28;20202;-76
2021/12/28 01:56:27;;;;;;;13.33;12.07;;;7.40;99.90;;;;;;5031886;28;20221;-77
2021/12/28 01:58:57;;;;;;;13.07;11.97;;;7.40;99.90;;;;;;5032165;28;20201;-77
2021/12/28 02:01:26;;;;;;;13.77;12.20;;;7.30;99.90;;;;;;5025977;28;20208;-76
2021/12/28 02:03:53;;;;;;;14.13;12.80;;;7.30;99.90;;;;;;5031960;28;20198;-76
2021/12/28 02:06:22;;;;;;;13.80;12.53;;;7.30;99.90;;;;;;5024713;28;20713;-77
2021/12/28 02:08:49;;;;;;;13.70;12.70;;;7.30;99.90;;;;;;5026961;28;20209;-77
2021/12/28 02:11:16;;;;;;;12.93;12.00;;;7.30;99.90;;;;;;5029529;28;20200;-77
2021/12/28 02:13:42;;;;;;;13.77;12.30;;;7.30;99.90;;;;;;5027058;28;20666;-77
2021/12/28 02:16:09;;;;;;;12.73;11.73;;;7.20;99.90;;;;;;5027394;28;20196;-77
2021/12/28 02:18:38;;;;;;;13.57;12.27;;;7.30;99.90;;;;;;5025769;28;20190;-76
2021/12/28 02:21:08;;;;;;;14.00;12.70;;;7.20;99.90;;;;;;5031797;28;20201;-76
2021/12/28 02:23:35;;;;;;;14.67;13.10;;;7.30;99.90;;;;;;5031572;28;20689;-77
2021/12/28 02:26:03;;;;;;;13.70;12.60;;;7.20;99.90;;;;;;5024474;28;20251;-76
2021/12/28 02:28:30;;;;;;;13.87;12.60;;;7.20;99.90;;;;;;5020915;28;20213;-76
2021/12/28 02:30:59;;;;;;;13.87;12.47;;;7.20;99.90;;;;;;5025282;28;20207;-77
2021/12/28 02:33:27;;;;;;;14.20;12.90;;;7.20;99.90;;;;;;5028311;28;20206;-77
2021/12/28 02:35:57;;;;;;;13.63;12.63;;;7.30;99.90;;;;;;5026642;28;20204;-76
2021/12/28 02:38:26;;;;;;;13.47;12.37;;;7.20;99.90;;;;;;5024036;28;20567;-77
2021/12/28 02:40:54;;;;;;;13.53;12.43;;;7.30;99.90;;;;;;5024944;28;20272;-77
2021/12/28 02:43:21;;;;;;;14.23;12.93;;;7.20;99.90;;;;;;5024307;28;20197;-77
2021/12/28 02:45:51;;;;;;;13.10;12.10;;;7.20;99.90;;;;;;5026288;28;20189;-77
2021/12/28 02:48:18;;;;;;;13.40;12.50;;;7.20;99.90;;;;;;5027495;28;20220;-76
2021/12/28 02:50:48;;;;;;;14.13;13.00;;;7.20;99.90;;;;;;5023849;28;20193;-77
2021/12/28 02:53:17;;;;;;;13.77;12.50;;;7.20;99.90;;;;;;5030868;28;20227;-77
2021/12/28 02:55:46;;;;;;;13.60;12.50;;;7.20;99.90;;;;;;5031250;28;20690;-77
2021/12/28 02:58:25;;;;;;;13.00;12.10;;;7.20;99.90;;;;;;5030457;28;20219;-77
2021/12/28 03:00:56;;;;;;;14.10;12.80;;;7.20;99.90;;;;;;5028594;28;20198;-77
2021/12/28 03:03:26;;;;;;;13.33;12.43;;;7.10;99.90;;;;;;5030715;28;20200;-77
2021/12/28 03:05:54;;;;;;;14.40;13.07;;;7.10;99.90;;;;;;5022632;28;20196;-77
2021/12/28 03:08:23;;;;;;;13.57;12.63;;;7.20;99.90;;;;;;5030417;28;20228;-77
2021/12/28 03:10:51;;;;;;;13.23;12.33;;;7.20;99.90;;;;;;5023956;28;20200;-77
2021/12/28 03:13:21;;;;;;;13.27;12.47;;;7.20;99.90;;;;;;5028735;28;20197;-77
2021/12/28 03:15:48;;;;;;;13.60;12.47;;;7.20;99.90;;;;;;5025801;28;20196;-77
2021/12/28 03:18:15;;;;;;;15.23;13.87;;;7.20;99.90;;;;;;5028579;28;20230;-77
2021/12/28 03:20:42;;;;;;;13.47;12.50;;;7.20;99.90;;;;;;5023565;28;20196;-77
2021/12/28 03:23:09;;;;;;;13.23;12.30;;;7.20;99.90;;;;;;5027384;28;20211;-77
2021/12/28 03:25:36;;;;;;;13.63;12.70;;;7.20;99.90;;;;;;5024979;28;20200;-77
2021/12/28 03:28:05;;;;;;;13.43;12.43;;;7.30;99.90;;;;;;5029896;28;20220;-77
2021/12/28 03:30:32;;;;;;;14.33;13.23;;;7.30;99.90;;;;;;5023584;28;20203;-77
2021/12/28 03:32:59;;;;;;;13.90;12.90;;;7.30;99.90;;;;;;5030386;28;20197;-77
2021/12/28 03:35:26;;;;;;;13.27;12.30;;;7.30;99.90;;;;;;5028634;28;20201;-77
2021/12/28 03:37:53;;;;;;;13.73;12.73;;;7.30;99.90;;;;;;5024532;28;20211;-77
2021/12/28 03:40:20;;;;;;;14.47;13.17;;;7.40;99.90;;;;;;5026772;28;20202;-77
2021/12/28 03:42:47;;;;;;;14.13;13.13;;;7.40;99.90;;;;;;5024711;28;20196;-77
2021/12/28 03:45:15;;;;;;;13.40;12.47;;;7.40;99.90;;;;;;5030422;28;20204;-77
2021/12/28 03:47:42;;;;;;;13.03;12.23;;;7.40;99.90;;;;;;5031333;28;20245;-78
2021/12/28 03:50:11;;;;;;;12.73;12.00;;;7.50;99.90;;;;;;5027304;28;20196;-77
2021/12/28 03:52:39;;;;;;;13.50;12.50;;;7.50;99.90;;;;;;5028062;28;20653;-78
2021/12/28 03:55:07;;;;;;;13.20;12.20;;;7.50;99.90;;;;;;5034957;28;20203;-82
2021/12/28 03:57:35;;;;;;;12.77;11.87;;;7.60;99.90;;;;;;5033924;28;20703;-81
2021/12/28 04:00:02;;;;;;;13.67;12.67;;;7.60;99.90;;;;;;5038620;28;20215;-82
2021/12/28 04:02:33;;;;;;;13.07;12.27;;;7.60;99.90;;;;;;5035043;28;20203;-78
2021/12/28 04:05:00;;;;;;;12.77;12.03;;;7.60;99.90;;;;;;5037605;28;20215;-80
2021/12/28 04:07:27;;;;;;;12.97;12.17;;;7.60;99.90;;;;;;5024880;28;20258;-78
2021/12/28 04:10:02;;;;;;;8.57;7.80;;;7.70;99.90;;;;;;5026866;28;20251;-77
2021/12/28 04:12:30;;;;;;;11.53;10.43;;;7.70;99.90;;;;;;5024325;28;20208;-77
2021/12/28 04:14:58;;;;;;;7.73;6.17;;;7.70;99.90;;;;;;5019936;28;20207;-79
2021/12/28 04:17:25;;;;;;;11.67;10.60;;;7.80;99.90;;;;;;5036133;28;20230;-80
2021/12/28 04:19:54;;;;;;;9.23;8.63;;;7.80;99.90;;;;;;5036035;28;20197;-79
2021/12/28 04:22:21;;;;;;;7.70;7.10;;;7.80;99.90;;;;;;5032435;28;20208;-79
2021/12/28 04:24:51;;;;;;;10.50;9.47;;;7.80;99.90;;;;;;5037413;28;20197;-80
2021/12/28 04:27:18;;;;;;;12.97;12.07;;;7.80;99.90;;;;;;5056449;22;20231;-83
2021/12/28 04:29:46;;;;;;;8.10;7.03;;;7.80;99.90;;;;;;5044936;28;20221;-85
2021/12/28 04:32:13;;;;;;;13.77;12.87;;;7.80;99.90;;;;;;5033908;28;20232;-80
2021/12/28 04:34:40;;;;;;;9.67;8.80;;;7.90;99.90;;;;;;5038606;28;20198;-80
2021/12/28 04:37:08;;;;;;;6.60;4.07;;;7.80;99.90;;;;;;5029859;28;20611;-80
2021/12/28 04:39:35;;;;;;;9.87;8.90;;;7.80;99.90;;;;;;5016614;28;20577;-80
2021/12/28 04:42:02;;;;;;;5.90;5.30;;;7.80;99.90;;;;;;5019640;28;20201;-81
2021/12/28 04:44:29;;;;;;;8.73;7.87;;;7.80;99.90;;;;;;5015231;28;20210;-81
2021/12/28 04:46:56;;;;;;;8.50;7.80;;;7.80;99.90;;;;;;5016924;28;20226;-81
2021/12/28 04:49:26;;;;;;;4.60;4.10;;;7.80;99.90;;;;;;5011795;28;20226;-81
2021/12/28 04:51:53;;;;;;;9.07;8.17;;;7.80;99.90;;;;;;5010613;28;20547;-81
2021/12/28 04:54:22;;;;;;;10.70;9.90;;;7.80;99.90;;;;;;5009360;28;20221;-81
2021/12/28 04:56:49;;;;;;;5.43;4.47;;;7.80;99.90;;;;;;5009035;28;20252;-81
2021/12/28 04:59:17;;;;;;;8.40;7.77;;;7.80;99.90;;;;;;5015592;28;20193;-80
2021/12/28 05:01:45;;;;;;;13.20;12.10;;;7.80;99.90;;;;;;5012600;28;20596;-81
2021/12/28 05:04:12;;;;;;;4.37;3.97;;;7.80;99.90;;;;;;5014885;28;20202;-81
2021/12/28 05:06:39;;;;;;;6.67;6.17;;;7.80;99.90;;;;;;5012576;28;20237;-80
2021/12/28 05:09:07;;;;;;;4.30;3.90;;;7.80;99.90;;;;;;5015106;28;20222;-80
2021/12/28 05:11:37;;;;;;;13.60;12.63;;;7.80;99.90;;;;;;5011547;28;20676;-80
2021/12/28 05:14:05;;;;;;;6.83;4.37;;;7.80;99.90;;;;;;5012783;28;20205;-81
2021/12/28 05:16:33;;;;;;;6.93;6.33;;;7.80;99.90;;;;;;5005922;28;20217;-79
2021/12/28 05:19:01;;;;;;;5.57;5.07;;;7.80;99.90;;;;;;5019434;28;20260;-79
2021/12/28 05:21:28;;;;;;;7.77;7.27;;;7.80;99.90;;;;;;5010763;28;20764;-80
2021/12/28 05:23:56;;;;;;;5.47;5.07;;;7.80;99.90;;;;;;5005574;28;20199;-80
2021/12/28 05:26:23;;;;;;;11.77;10.97;;;7.80;99.90;;;;;;5011143;28;20286;-80
2021/12/28 05:28:51;;;;;;;12.93;12.13;;;7.80;99.90;;;;;;5010361;28;20223;-80
2021/12/28 05:31:18;;;;;;;13.47;12.67;;;7.80;99.90;;;;;;5011874;28;20210;-80
2021/12/28 05:33:45;;;;;;;13.37;12.60;;;7.90;99.90;;;;;;5007093;28;20598;-80
2021/12/28 05:36:12;;;;;;;13.60;12.70;;;7.90;99.90;;;;;;5013659;28;20203;-80
2021/12/28 05:38:39;;;;;;;13.03;12.27;;;7.90;99.90;;;;;;5014338;28;20203;-80
2021/12/28 05:41:07;;;;;;;13.03;12.33;;;7.90;99.90;;;;;;5014642;28;20585;-80
2021/12/28 05:43:34;;;;;;;13.57;12.67;;;7.90;99.90;;;;;;5015434;28;20191;-82
2021/12/28 05:46:02;;;;;;;13.30;12.50;;;7.90;99.90;;;;;;5014023;28;20217;-78
2021/12/28 05:48:29;;;;;;;6.77;6.27;;;7.90;99.90;;;;;;5012439;28;20218;-79
2021/12/28 05:50:56;;;;;;;13.43;12.53;;;8.00;99.90;;;;;;5014114;28;20667;-79
2021/12/28 05:53:23;;;;;;;4.43;4.13;;;8.00;99.90;;;;;;5014310;28;20670;-78
2021/12/28 05:55:50;;;;;;;6.97;6.37;;;8.00;99.90;;;;;;5007035;28;20211;-81
2021/12/28 05:58:17;;;;;;;5.97;4.97;;;8.00;99.90;;;;;;5008495;28;20222;-80
2021/12/28 06:00:45;;;;;;;6.23;5.73;;;8.00;99.90;;;;;;4998350;28;20200;-80
2021/12/28 06:03:14;;;;;;;8.93;8.33;;;8.10;99.90;;;;;;5000542;28;20202;-82
2021/12/28 06:05:41;;;;;;;6.97;6.57;;;8.10;99.90;;;;;;5000541;28;20697;-80
2021/12/28 06:08:08;;;;;;;5.57;5.17;;;8.10;99.90;;;;;;5008609;28;20226;-84
2021/12/28 06:10:35;;;;;;;5.07;4.70;;;8.10;99.90;;;;;;5006767;28;20214;-80
2021/12/28 06:13:02;;;;;;;4.47;4.13;;;8.10;99.90;;;;;;4999833;28;20204;-80
2021/12/28 06:15:29;;;;;;;7.33;6.83;;;8.10;99.90;;;;;;5004932;28;20207;-83
2021/12/28 06:17:56;;;;;;;12.83;12.03;;;8.20;99.90;;;;;;5006120;28;20604;-82
2021/12/28 06:20:24;;;;;;;4.90;3.47;;;8.20;99.90;;;;;;5028330;28;20218;-82
2021/12/28 06:22:51;;;;;;;3.83;3.53;;;8.30;99.90;;;;;;5006452;28;20208;-79
2021/12/28 06:25:18;;;;;;;7.80;7.23;;;8.30;99.90;;;;;;5008633;28;20204;-82
2021/12/28 06:27:44;;;;;;;12.70;12.00;;;8.30;99.90;;;;;;5006145;28;20234;-81
2021/12/28 06:30:12;;;;;;;7.57;7.07;;;8.40;99.90;;;;;;5007662;28;20219;-81
2021/12/28 06:32:40;;;;;;;3.23;2.90;;;8.40;99.90;;;;;;5006943;28;20663;-81
2021/12/28 06:35:11;;;;;;;9.88;9.27;;;8.50;99.90;;;;;;5002434;28;21005;-80
2021/12/28 06:37:39;;;;;;;13.63;12.83;;;8.40;99.90;;;;;;5006998;28;20234;-81
2021/12/28 06:40:08;;;;;;;12.03;11.33;;;8.50;99.90;;;;;;5010855;28;20561;-80
2021/12/28 06:42:35;;;;;;;11.80;11.20;;;8.50;99.90;;;;;;5007280;28;20201;-81
2021/12/28 06:45:02;;;;;;;12.23;11.53;;;8.60;99.90;;;;;;5009667;28;20581;-80
2021/12/28 06:47:29;;;;;;;12.40;11.53;;;8.60;99.90;;;;;;5003339;28;20234;-80
2021/12/28 06:49:56;;;;;;;12.87;11.97;;;8.60;99.90;;;;;;5007541;28;20223;-80
2021/12/28 06:52:23;;;;;;;12.87;12.07;;;8.60;99.90;;;;;;5003077;28;20215;-80
2021/12/28 06:54:51;;;;;;;12.30;11.60;;;8.60;99.90;;;;;;5006897;28;20692;-81
2021/12/28 06:57:18;;;;;;;12.30;11.60;;;8.70;99.90;;;;;;5010244;28;20217;-81
2021/12/28 06:59:45;;;;;;;12.47;11.87;;;8.70;99.90;;;;;;5009803;28;20196;-79
2021/12/28 07:02:14;;;;;;;12.53;11.93;;;8.70;99.90;;;;;;5009699;28;20207;-82
2021/12/28 07:04:42;;;;;;;12.53;11.90;;;8.80;99.90;;;;;;5012676;28;20192;-81
2021/12/28 07:07:09;;;;;;;13.27;12.57;;;8.80;99.90;;;;;;5010860;28;20224;-83
2021/12/28 07:09:36;;;;;;;12.50;11.90;;;8.80;99.90;;;;;;5007016;28;20220;-82
2021/12/28 07:12:06;;;;;;;12.80;12.10;;;8.80;99.90;;;;;;5010647;28;20214;-83
2021/12/28 07:14:32;;;;;;;12.40;11.80;;;8.90;99.90;;;;;;5008138;28;20215;-83
2021/12/28 07:17:00;;;;;;;13.03;12.30;;;8.90;99.90;;;;;;5005826;28;20222;-82
2021/12/28 07:19:27;;;;;;;12.70;11.90;;;8.90;99.90;;;;;;4997885;28;20208;-82
2021/12/28 07:21:55;;;;;;;13.20;12.50;;;8.90;99.90;;;;;;5006493;28;20200;-81
2021/12/28 07:24:22;;;;;;;12.37;11.77;;;9.00;99.90;;;;;;5012993;28;20192;-83
2021/12/28 07:26:49;;;;;;;12.97;12.27;;;9.00;99.90;;;;;;5012412;28;20227;-83
2021/12/28 07:29:17;;;;;;;12.63;12.03;;;9.00;99.90;;;;;;5013181;28;20220;-83
2021/12/28 07:31:44;;;;;;;12.90;12.10;;;9.10;99.90;;;;;;5006789;28;20203;-81
2021/12/28 07:34:11;;;;;;;12.50;11.87;;;9.10;99.90;;;;;;5007772;28;20226;-82
2021/12/28 07:36:38;;;;;;;12.50;11.90;;;9.10;99.90;;;;;;4999185;28;20224;-83
2021/12/28 07:39:06;;;;;;;12.40;11.80;;;9.10;99.90;;;;;;5014511;28;20207;-83
2021/12/28 07:41:33;;;;;;;13.00;12.23;;;9.00;99.90;;;;;;5003342;28;20595;-79
2021/12/28 07:44:02;;;;;;;12.20;11.60;;;9.10;99.90;;;;;;5014889;28;20235;-83
2021/12/28 07:46:30;;;;;;;12.37;11.77;;;9.10;99.90;;;;;;5009819;28;20220;-83
2021/12/28 07:48:57;;;;;;;12.33;11.70;;;9.10;99.90;;;;;;5015598;28;20563;-83
2021/12/28 07:51:24;;;;;;;12.70;12.00;;;9.20;99.90;;;;;;5008819;28;20196;-83
2021/12/28 07:53:51;;;;;;;12.63;11.93;;;9.30;99.90;;;;;;4995723;28;20677;-80
2021/12/28 07:56:18;;;;;;;12.47;11.87;;;9.30;99.90;;;;;;4991844;28;20221;-81
2021/12/28 07:58:45;;;;;;;12.67;12.03;;;9.30;99.90;;;;;;4990635;28;20677;-80
2021/12/28 08:01:12;;;;;;;13.00;12.30;;;9.40;99.90;;;;;;5006521;28;20214;-81
2021/12/28 08:03:40;;;;;;;12.80;12.10;;;9.40;99.90;;;;;;5002830;28;20697;-80
2021/12/28 08:06:07;;;;;;;12.80;12.10;;;9.50;99.90;;;;;;5008208;28;20200;-81
2021/12/28 08:08:34;;;;;;;12.70;12.07;;;9.50;99.90;;;;;;5006096;28;20201;-81
2021/12/28 08:11:01;;;;;;;12.63;12.03;;;9.50;99.90;;;;;;5002436;28;20220;-81
2021/12/28 08:13:28;;;;;;;12.43;11.83;;;9.60;99.90;;;;;;5002312;28;20196;-81
2021/12/28 08:15:56;;;;;;;12.50;11.90;;;9.60;99.90;;;;;;5002753;28;20197;-82
2021/12/28 08:18:23;;;;;;;12.20;11.60;;;9.60;99.90;;;;;;5004361;28;20212;-80
2021/12/28 08:20:52;;;;;;;12.40;11.80;;;9.80;99.90;;;;;;5006077;28;20204;-79
2021/12/28 08:23:18;;;;;;;7.80;7.40;;;10.00;99.90;;;;;;5007865;28;20208;-78
2021/12/28 08:25:45;;;;;;;12.10;11.50;;;10.30;99.90;;;;;;4996693;28;20212;-82
2021/12/28 08:28:13;;;;;;;11.50;10.90;;;10.40;99.90;;;;;;5014943;28;20250;-82
2021/12/28 08:30:40;;;;;;;13.40;12.70;;;10.40;99.90;;;;;;5015472;28;20213;-83
2021/12/28 08:33:09;;;;;;;12.43;11.83;;;10.40;99.90;;;;;;5008224;28;20208;-83
2021/12/28 08:35:39;;;;;;;12.50;11.90;;;10.40;99.90;;;;;;5009822;28;20200;-81
2021/12/28 08:38:08;;;;;;;13.00;12.30;;;10.30;99.90;;;;;;5008488;28;20627;-81
2021/12/28 08:40:35;;;;;;;12.43;11.83;;;10.30;99.90;;;;;;5013648;28;20200;-80
2021/12/28 08:43:02;;;;;;;12.30;11.70;;;10.30;99.90;;;;;;5005765;28;20586;-80
2021/12/28 08:45:29;;;;;;;12.60;12.00;;;10.30;99.90;;;;;;5014842;28;20197;-81
2021/12/28 08:47:56;;;;;;;12.40;11.70;;;10.30;99.90;;;;;;5012374;28;20224;-82
2021/12/28 08:50:24;;;;;;;12.93;12.33;;;10.40;99.90;;;;;;5007466;28;20219;-80
2021/12/28 08:52:51;;;;;;;8.00;7.60;;;10.40;99.90;;;;;;5008982;28;20205;-79
2021/12/28 08:55:22;;;;;;;11.03;10.43;;;10.50;99.90;;;;;;5010616;28;20200;-81
2021/12/28 08:57:50;;;;;;;10.30;9.70;;;10.50;99.90;;;;;;5008680;28;20224;-81
2021/12/28 09:00:23;;;;;;;4.30;4.10;;;10.50;99.90;;;;;;5007182;28;20197;-79
2021/12/28 09:02:51;;;;;;;9.83;9.33;;;10.50;99.90;;;;;;5004051;28;20684;-80
2021/12/28 09:05:18;;;;;;;5.20;4.93;;;10.50;99.90;;;;;;5007915;28;20274;-82
2021/12/28 09:07:45;;;;;;;6.20;5.87;;;10.60;99.90;;;;;;5007956;28;20219;-81
2021/12/28 09:10:13;;;;;;;3.17;2.97;;;10.50;99.90;;;;;;5008859;28;20209;-79
2021/12/28 09:12:41;;;;;;;4.77;4.53;;;10.50;99.90;;;;;;5011817;28;20193;-80
2021/12/28 09:15:11;;;;;;;11.10;10.50;;;10.50;99.90;;;;;;5016109;28;20200;-75
2021/12/28 09:17:38;;;;;;;9.60;9.10;;;10.50;99.90;;;;;;5011447;28;20305;-80
2021/12/28 09:20:10;;;;;;;10.30;9.70;;;10.60;99.90;;;;;;5008573;28;20552;-80
2021/12/28 09:22:37;;;;;;;2.40;2.30;;;10.60;99.90;;;;;;5013672;28;20204;-80
2021/12/28 09:25:06;;;;;;;2.50;2.40;;;10.70;99.90;;;;;;5009120;28;20201;-80
2021/12/28 09:27:32;;;;;;;12.00;11.20;;;10.70;99.90;;;;;;5008572;28;20224;-80
2021/12/28 09:30:01;;;;;;;4.00;3.80;;;10.80;99.90;;;;;;5017227;28;20592;-80
2021/12/28 09:32:28;;;;;;;5.50;5.20;;;10.90;99.90;;;;;;5012346;28;20201;-80
2021/12/28 09:34:56;;;;;;;3.47;2.83;;;10.90;99.90;;;;;;5012420;28;20205;-80
2021/12/28 09:37:23;;;;;;;7.23;6.83;;;11.00;99.90;;;;;;5007484;28;20243;-82
2021/12/28 09:39:51;;;;;;;2.50;2.40;;;11.00;99.90;;;;;;5008642;28;20196;-81
2021/12/28 09:42:18;;;;;;;2.40;2.30;;;11.10;99.90;;;;;;5013971;28;20204;-83
2021/12/28 09:44:47;;;;;;;11.80;11.20;;;11.10;99.90;;;;;;5012782;28;20392;-83
2021/12/28 09:47:17;;;;;;;4.73;4.53;;;11.20;99.90;;;;;;5006923;28;20704;-82
2021/12/28 09:49:44;;;;;;;2.50;2.40;;;11.30;99.90;;;;;;5004767;28;20328;-82
2021/12/28 09:52:12;;;;;;;12.03;11.43;;;11.30;99.90;;;;;;5011746;28;20735;-82
2021/12/28 09:54:40;;;;;;;12.10;11.40;;;11.40;99.90;;;;;;5008175;28;20200;-80
2021/12/28 09:57:07;;;;;;;11.77;11.17;;;11.40;99.90;;;;;;5007886;28;20235;-82
2021/12/28 09:59:35;;;;;;;7.77;7.37;;;11.40;99.90;;;;;;5009526;28;20197;-84
2021/12/28 10:02:10;;;;;;;9.90;9.40;;;11.50;99.90;;;;;;5004006;28;20219;-81
2021/12/28 10:04:39;;;;;;;11.03;10.43;;;11.50;99.90;;;;;;5000311;28;20260;-82
2021/12/28 10:07:16;;;;;;;11.50;10.90;;;11.60;99.90;;;;;;4998772;28;20225;-80
2021/12/28 10:09:44;;;;;;;10.77;10.17;;;11.50;99.90;;;;;;5004593;28;20202;-80
2021/12/28 10:12:11;;;;;;;8.47;8.07;;;11.60;99.90;;;;;;5004268;28;20590;-80
2021/12/28 10:14:38;;;;;;;2.57;2.43;;;11.60;99.90;;;;;;5007525;28;20686;-80
2021/12/28 10:17:07;;;;;;;7.50;7.10;;;11.60;99.90;;;;;;5009835;28;20222;-80
2021/12/28 10:19:41;;;;;;;12.00;11.30;;;11.60;99.90;;;;;;5000422;28;20197;-80
2021/12/28 10:22:24;;;;;;;11.67;10.90;;;11.60;99.90;;;;;;5005661;28;20209;-80
2021/12/28 10:24:53;;;;;;;12.47;11.77;;;11.70;99.90;;;;;;5015297;28;20208;-80
2021/12/28 10:27:22;;;;;;;13.57;12.87;;;11.60;99.90;;;;;;5034869;23;20280;-77
2021/12/28 10:29:50;;;;;;;9.37;8.87;;;11.50;99.90;;;;;;5003427;28;20197;-76
2021/12/28 10:32:19;;;;;;;10.40;9.80;;;11.50;99.90;;;;;;5009685;28;20212;-79
2021/12/28 10:34:49;;;;;;;11.40;10.80;;;11.50;99.90;;;;;;5006109;28;20208;-79
2021/12/28 10:37:18;;;;;;;12.33;11.73;;;11.50;99.90;;;;;;5010099;28;20224;-83
2021/12/28 10:39:46;;;;;;;13.77;13.07;;;11.50;99.90;;;;;;5010450;28;20245;-78
2021/12/28 10:42:38;;;;;;;15.20;14.50;;;11.60;99.90;;;;;;5011506;28;20207;-77
2021/12/28 10:45:07;;;;;;;15.00;14.30;;;11.60;99.90;;;;;;5012001;28;20240;-77
2021/12/28 10:47:35;;;;;;;14.50;13.80;;;11.60;99.90;;;;;;5007858;28;20450;-78
2021/12/28 10:50:19;;;;;;;14.23;13.53;;;11.70;99.90;;;;;;5006014;28;20221;-77
2021/12/28 10:52:50;;;;;;;14.77;14.07;;;11.70;99.90;;;;;;5004498;28;20687;-77
2021/12/28 10:55:20;;;;;;;14.67;13.87;;;11.80;99.90;;;;;;5009195;28;20216;-77
2021/12/28 10:57:47;;;;;;;14.07;13.37;;;11.90;99.90;;;;;;5000355;28;20221;-77
2021/12/28 11:00:26;;;;;;;15.70;14.90;;;12.00;99.90;;;;;;5010489;28;20189;-77
2021/12/28 11:02:54;;;;;;;15.17;14.27;;;12.00;99.90;;;;;;5011990;28;20259;-78
2021/12/28 11:05:33;;;;;;;14.80;14.00;;;12.10;99.90;;;;;;5010984;28;20201;-77
2021/12/28 11:08:01;;;;;;;11.57;10.97;;;12.20;99.90;;;;;;5012103;28;20233;-79
2021/12/28 11:10:29;;;;;;;12.50;11.80;;;12.20;99.90;;;;;;5004211;28;20269;-77
2021/12/28 11:12:57;;;;;;;12.20;11.50;;;12.30;99.90;;;;;;5009563;28;20193;-78
2021/12/28 11:15:25;;;;;;;5.63;5.23;;;12.40;99.90;;;;;;5008512;28;20196;-77
2021/12/28 11:17:54;;;;;;;5.03;4.63;;;12.50;99.90;;;;;;5010749;28;20224;-77
2021/12/28 11:20:29;;;;;;;6.87;6.47;;;12.50;99.90;;;;;;5007644;28;20221;-78
2021/12/28 11:23:12;;;;;;;5.00;4.70;;;12.60;99.90;;;;;;5007915;28;20620;-77
2021/12/28 11:25:39;;;;;;;3.93;3.73;;;12.50;99.90;;;;;;5004094;28;20584;-77
2021/12/28 11:28:16;;;;;;;9.80;9.30;;;12.50;99.90;;;;;;5010692;28;20712;-76
2021/12/28 11:31:01;;;;;;;13.30;12.60;;;12.50;99.90;;;;;;5011751;28;20216;-77
2021/12/28 11:33:41;;;;;;;9.83;9.23;;;12.60;99.90;;;;;;4998284;28;20294;-77
2021/12/28 11:36:08;;;;;;;11.47;10.83;;;12.70;99.90;;;;;;5003581;28;20544;-77
2021/12/28 11:38:37;;;;;;;8.73;8.23;;;12.80;99.90;;;;;;5007240;28;20231;-77
2021/12/28 11:41:05;;;;;;;9.97;9.47;;;12.80;99.90;;;;;;5010307;28;20223;-77
2021/12/28 11:43:34;;;;;;;11.70;11.10;;;12.80;99.90;;;;;;5006273;28;20213;-77
2021/12/28 11:46:01;;;;;;;9.27;8.70;;;12.80;99.90;;;;;;5006595;28;20208;-77
2021/12/28 11:48:28;;;;;;;10.30;9.70;;;13.00;99.90;;;;;;5010127;28;20233;-77
2021/12/28 11:50:55;;;;;;;9.30;8.70;;;13.00;99.90;;;;;;5009071;28;20600;-77
2021/12/28 11:53:22;;;;;;;10.70;10.10;;;13.10;99.90;;;;;;5002184;28;20577;-77
2021/12/28 11:55:51;;;;;;;8.60;8.10;;;13.20;99.90;;;;;;5010190;28;20621;-77
2021/12/28 11:58:18;;;;;;;12.27;11.57;;;13.10;99.90;;;;;;5009001;28;20719;-77
2021/12/28 12:00:45;;;;;;;4.43;4.13;;;13.00;99.90;;;;;;5005791;28;20195;-77
2021/12/28 12:03:34;;;;;;;4.47;4.27;;;12.90;99.90;;;;;;5007908;28;20208;-77
2021/12/28 12:06:01;;;;;;;4.70;4.40;;;12.90;99.90;;;;;;5010164;28;20224;-76
2021/12/28 12:08:29;;;;;;;4.30;4.10;;;12.80;99.90;;;;;;5001298;28;20569;-77
2021/12/28 12:11:05;;;;;;;4.43;4.23;;;12.80;99.90;;;;;;5013293;28;20204;-77
2021/12/28 12:13:32;;;;;;;4.70;4.40;;;12.80;99.90;;;;;;5020249;28;20193;-77
2021/12/28 12:16:01;;;;;;;4.20;4.00;;;12.70;99.90;;;;;;5015332;28;20198;-77
2021/12/28 12:18:30;;;;;;;4.70;4.40;;;12.70;99.90;;;;;;5014839;28;20239;-77
2021/12/28 12:21:05;;;;;;;4.63;4.43;;;12.70;99.90;;;;;;5015025;28;20191;-77
2021/12/28 12:23:42;;;;;;;4.30;4.10;;;12.70;99.90;;;;;;5009924;28;20621;-77
2021/12/28 12:26:17;;;;;;;4.53;4.30;;;12.70;99.90;;;;;;5011471;28;20214;-77
2021/12/28 12:28:48;;;;;;;3.90;3.60;;;12.70;99.90;;;;;;5011878;28;20229;-77
2021/12/28 12:31:24;;;;;;;5.17;4.87;;;12.70;99.90;;;;;;5006774;28;20241;-77
2021/12/28 12:33:52;;;;;;;8.33;7.83;;;12.70;99.90;;;;;;5014867;28;20203;-77
2021/12/28 12:36:23;;;;;;;6.63;6.23;;;12.70;99.90;;;;;;5010967;28;20582;-77
2021/12/28 12:38:52;;;;;;;9.80;9.30;;;12.60;99.90;;;;;;5010012;28;20238;-77
2021/12/28 12:41:23;;;;;;;8.73;8.33;;;12.60;99.90;;;;;;5012792;28;20188;-77
2021/12/28 12:43:56;;;;;;;12.33;11.63;;;12.60;99.90;;;;;;5001986;28;20200;-78
2021/12/28 12:46:27;;;;;;;5.30;5.00;;;12.60;99.90;;;;;;5012447;28;20206;-76